Time;durP1;ratioP1;P1;durP2;ratioP2;P2;SDS_P1;SDS_P2;PMS_P1;PMS_P2;Temp;Humidity;BMP_temperature;BMP_pressure;BME280_temperature;BME280_humidity;BME280_pressure;Samples;Min_cycle;Max_cycle;Signal;HPM_P1;HPM_P2
2022/05/11 00:01:50;;;;;;;6.80;2.28;;;;;;;;;;10394324;28;20072;-78
2022/05/11 00:06:52;;;;;;;6.70;2.58;;;;;;;;;;10388592;28;20053;-78
2022/05/11 00:11:54;;;;;;;5.85;2.50;;;;;;;;;;10399624;28;20072;-77
2022/05/11 00:16:56;;;;;;;9.82;2.78;;;;;;;;;;10381554;28;20417;-78
2022/05/11 00:21:58;;;;;;;6.97;2.22;;;;;;;;;;10372102;28;20324;-78
2022/05/11 00:27:02;;;;;;;7.25;2.28;;;;;;;;;;10365265;28;20508;-78
2022/05/11 00:32:03;;;;;;;6.80;2.60;;;;;;;;;;10373243;28;20033;-77
2022/05/11 00:37:05;;;;;;;6.60;2.95;;;;;;;;;;10374618;28;20085;-77
2022/05/11 00:42:07;;;;;;;5.70;2.58;;;;;;;;;;10353648;28;20037;-78
2022/05/11 00:47:16;;;;;;;8.02;3.17;;;;;;;;;;10360482;28;20061;-77
2022/05/11 00:52:23;;;;;;;10.27;3.67;;;;;;;;;;10356012;28;20061;-78
2022/05/11 00:57:40;;;;;;;7.45;3.08;;;;;;;;;;10379704;28;20103;-77
2022/05/11 01:02:42;;;;;;;6.60;2.75;;;;;;;;;;10371405;28;20123;-78
2022/05/11 01:07:44;;;;;;;8.07;3.10;;;;;;;;;;10374987;28;20148;-78
2022/05/11 01:12:49;;;;;;;8.35;3.15;;;;;;;;;;10386038;28;20042;-78
2022/05/11 01:17:51;;;;;;;9.50;3.97;;;;;;;;;;10362764;28;20140;-78
2022/05/11 01:22:58;;;;;;;8.05;3.28;;;;;;;;;;10366883;28;20076;-78
2022/05/11 01:28:11;;;;;;;9.50;3.92;;;;;;;;;;10380023;28;20059;-78
2022/05/11 01:33:14;;;;;;;9.05;3.72;;;;;;;;;;10406897;28;20504;-77
2022/05/11 01:38:21;;;;;;;7.22;3.72;;;;;;;;;;10390262;28;20155;-77
2022/05/11 01:43:24;;;;;;;10.13;3.88;;;;;;;;;;10369817;28;20133;-76
2022/05/11 01:48:26;;;;;;;8.80;3.53;;;;;;;;;;10359975;28;20066;-78
2022/05/11 01:53:27;;;;;;;15.35;4.40;;;;;;;;;;10395720;28;20113;-78
2022/05/11 01:58:29;;;;;;;11.93;3.55;;;;;;;;;;10369093;28;20636;-77
2022/05/11 02:03:31;;;;;;;7.97;3.38;;;;;;;;;;10381069;28;20125;-77
2022/05/11 02:08:32;;;;;;;8.57;3.63;;;;;;;;;;10388516;28;20141;-77
2022/05/11 02:13:34;;;;;;;7.18;3.45;;;;;;;;;;10373737;28;20045;-77
2022/05/11 02:18:35;;;;;;;9.40;3.38;;;;;;;;;;10395567;28;20076;-77
2022/05/11 02:23:37;;;;;;;12.18;4.07;;;;;;;;;;10381215;28;20565;-77
2022/05/11 02:28:39;;;;;;;8.15;3.50;;;;;;;;;;10396496;28;20073;-76
2022/05/11 02:33:40;;;;;;;8.75;3.65;;;;;;;;;;10393359;28;20125;-77
2022/05/11 02:38:42;;;;;;;8.60;3.50;;;;;;;;;;10377348;28;20057;-77
2022/05/11 02:43:44;;;;;;;14.55;3.92;;;;;;;;;;10361001;28;20111;-76
2022/05/11 02:48:45;;;;;;;9.00;3.92;;;;;;;;;;10360428;28;20100;-78
2022/05/11 02:53:47;;;;;;;9.65;3.75;;;;;;;;;;10382923;28;20069;-77
2022/05/11 02:58:48;;;;;;;7.53;3.70;;;;;;;;;;10387832;28;20136;-77
2022/05/11 03:03:50;;;;;;;6.85;3.17;;;;;;;;;;10390751;28;20532;-77
2022/05/11 03:08:51;;;;;;;6.47;3.38;;;;;;;;;;10353813;28;20506;-77
2022/05/11 03:13:52;;;;;;;6.97;3.47;;;;;;;;;;10370682;28;20144;-77
2022/05/11 03:19:01;;;;;;;11.63;3.92;;;;;;;;;;10374469;28;20075;-77
2022/05/11 03:24:03;;;;;;;14.95;4.10;;;;;;;;;;10394898;28;20214;-77
2022/05/11 03:29:05;;;;;;;9.35;3.40;;;;;;;;;;10360565;28;20499;-78
2022/05/11 03:39:27;;;;;;;7.63;3.88;;;;;;;;;;10400781;28;20772;-77
2022/05/11 03:44:28;;;;;;;9.60;3.83;;;;;;;;;;10393406;28;20038;-76
2022/05/11 03:49:30;;;;;;;11.05;3.95;;;;;;;;;;10387774;28;20525;-78
2022/05/11 03:54:32;;;;;;;8.82;3.67;;;;;;;;;;10401049;28;20127;-76
2022/05/11 03:59:33;;;;;;;9.95;5.18;;;;;;;;;;10389476;28;20050;-78
2022/05/11 04:04:35;;;;;;;8.02;4.10;;;;;;;;;;10403949;28;20041;-77
2022/05/11 04:09:36;;;;;;;8.65;3.67;;;;;;;;;;10373517;28;20081;-78
2022/05/11 04:14:38;;;;;;;10.45;4.25;;;;;;;;;;10380224;28;20124;-76
2022/05/11 04:19:39;;;;;;;7.95;3.85;;;;;;;;;;10379927;28;20045;-77
2022/05/11 04:24:41;;;;;;;9.85;3.97;;;;;;;;;;10382774;28;20042;-77
2022/05/11 04:29:42;;;;;;;8.45;3.97;;;;;;;;;;10360690;28;20122;-77
2022/05/11 04:34:44;;;;;;;8.70;4.40;;;;;;;;;;10388535;28;20037;-77
2022/05/11 04:39:45;;;;;;;9.85;4.00;;;;;;;;;;10385636;28;20049;-77
2022/05/11 04:44:47;;;;;;;8.25;3.83;;;;;;;;;;10386137;28;20712;-77
2022/05/11 04:49:51;;;;;;;10.23;4.18;;;;;;;;;;10371205;28;20060;-77
2022/05/11 04:54:52;;;;;;;9.60;4.30;;;;;;;;;;10380448;28;20136;-77
2022/05/11 04:59:56;;;;;;;8.40;4.07;;;;;;;;;;10383442;28;20138;-77
2022/05/11 05:05:01;;;;;;;9.55;4.35;;;;;;;;;;10402482;28;20037;-75
2022/05/11 05:10:04;;;;;;;11.13;4.32;;;;;;;;;;10391430;28;20172;-76
2022/05/11 05:15:07;;;;;;;8.40;4.75;;;;;;;;;;10359002;28;20789;-77
2022/05/11 05:20:10;;;;;;;11.50;4.13;;;;;;;;;;10379580;28;20056;-77
2022/05/11 05:25:12;;;;;;;12.73;4.43;;;;;;;;;;10379023;28;20470;-78
2022/05/11 05:35:33;;;;;;;;;;;;;;;;;;10374477;28;20034;-79
2022/05/11 05:40:36;;;;;;;8.02;3.90;;;;;;;;;;10389328;28;20434;-79
2022/05/11 05:45:37;;;;;;;11.75;4.38;;;;;;;;;;10384764;28;20337;-80
2022/05/11 05:50:39;;;;;;;13.50;4.03;;;;;;;;;;10393806;28;20099;-72
2022/05/11 05:55:41;;;;;;;9.38;4.50;;;;;;;;;;10397905;28;20120;-78
2022/05/11 06:00:43;;;;;;;10.80;4.38;;;;;;;;;;10406690;28;20048;-79
2022/05/11 06:05:44;;;;;;;13.40;4.47;;;;;;;;;;10392234;28;20049;-79
2022/05/11 06:10:47;;;;;;;10.10;4.70;;;;;;;;;;10386021;28;20116;-78
2022/05/11 06:15:52;;;;;;;11.48;4.97;;;;;;;;;;10391001;28;20053;-78
2022/05/11 06:20:55;;;;;;;11.25;4.40;;;;;;;;;;10372809;28;20073;-79
2022/05/11 06:25:56;;;;;;;13.52;4.97;;;;;;;;;;10383339;28;20046;-79
2022/05/11 06:30:58;;;;;;;11.38;4.90;;;;;;;;;;10386731;28;20103;-74
2022/05/11 06:36:00;;;;;;;13.27;4.80;;;;;;;;;;10400539;28;20041;-74
2022/05/11 06:41:12;;;;;;;13.63;6.15;;;;;;;;;;10397810;28;20060;-79
2022/05/11 06:46:14;;;;;;;9.68;4.40;;;;;;;;;;10412186;28;20052;-78
2022/05/11 06:51:16;;;;;;;9.50;4.82;;;;;;;;;;10376945;28;20062;-78
2022/05/11 07:01:38;;;;;;;11.90;4.65;;;;;;;;;;10389839;28;20522;-78
2022/05/11 07:06:39;;;;;;;9.63;4.80;;;;;;;;;;10389663;28;20072;-78
2022/05/11 07:17:03;;;;;;;11.18;5.18;;;;;;;;;;10390683;28;20376;-77
2022/05/11 07:22:04;;;;;;;11.73;4.60;;;;;;;;;;10372372;28;20133;-77
2022/05/11 07:27:06;;;;;;;11.20;4.40;;;;;;;;;;10381131;28;20038;-77
2022/05/11 07:32:09;;;;;;;10.13;4.55;;;;;;;;;;10380350;28;20042;-77
2022/05/11 07:37:10;;;;;;;10.30;3.97;;;;;;;;;;10405208;28;20088;-76
2022/05/11 07:42:12;;;;;;;9.20;4.10;;;;;;;;;;10397934;28;20045;-75
2022/05/11 07:47:13;;;;;;;9.48;4.10;;;;;;;;;;10397809;28;20148;-72
2022/05/11 07:52:15;;;;;;;7.55;3.55;;;;;;;;;;10397172;28;20103;-71
2022/05/11 08:02:39;;;;;;;9.82;4.00;;;;;;;;;;10399311;28;20046;-71
2022/05/11 08:07:42;;;;;;;9.70;3.25;;;;;;;;;;10374401;28;20046;-76
2022/05/11 08:12:44;;;;;;;8.55;2.92;;;;;;;;;;10362285;28;20136;-72
2022/05/11 08:17:46;;;;;;;7.15;3.20;;;;;;;;;;10380583;28;20583;-73
2022/05/11 08:22:48;;;;;;;7.63;3.20;;;;;;;;;;10395577;28;20053;-70
2022/05/11 08:27:50;;;;;;;6.60;2.58;;;;;;;;;;10370768;28;20461;-71
2022/05/11 08:38:35;;;;;;;6.63;2.90;;;;;;;;;;10361778;28;20046;-71
2022/05/11 08:43:37;;;;;;;8.10;2.63;;;;;;;;;;10388100;28;20668;-71
2022/05/11 08:48:39;;;;;;;7.85;2.33;;;;;;;;;;10386419;28;20589;-72
2022/05/11 08:53:41;;;;;;;9.05;2.90;;;;;;;;;;10383528;28;20033;-70
2022/05/11 08:58:46;;;;;;;7.72;2.70;;;;;;;;;;10382926;28;20096;-71
2022/05/11 09:03:49;;;;;;;6.55;2.97;;;;;;;;;;10380455;28;20579;-69
2022/05/11 09:08:51;;;;;;;7.15;2.25;;;;;;;;;;10359833;28;20136;-73
2022/05/11 09:13:55;;;;;;;7.10;2.45;;;;;;;;;;10373001;28;20518;-70
2022/05/11 09:18:57;;;;;;;5.57;2.33;;;;;;;;;;10367259;28;20719;-74
2022/05/11 09:24:22;;;;;;;6.47;2.47;;;;;;;;;;10368188;28;20050;-78
2022/05/11 09:29:31;;;;;;;86.65;5.13;;;;;;;;;;10372253;28;20461;-72
2022/05/11 09:34:36;;;;;;;7.88;2.63;;;;;;;;;;10377908;28;20045;-72
2022/05/11 09:39:50;;;;;;;4.78;2.10;;;;;;;;;;10395451;28;20096;-74
2022/05/11 09:44:53;;;;;;;10.30;2.50;;;;;;;;;;10376805;28;20073;-72
2022/05/11 09:49:56;;;;;;;5.45;2.05;;;;;;;;;;10395116;28;20127;-73
2022/05/11 09:54:57;;;;;;;6.13;2.50;;;;;;;;;;10385756;28;20077;-74
2022/05/11 10:00:18;;;;;;;7.13;3.05;;;;;;;;;;10379744;28;20137;-73
2022/05/11 10:05:36;;;;;;;5.78;2.10;;;;;;;;;;10437678;28;20057;-74
2022/05/11 10:10:55;;;;;;;6.53;1.98;;;;;;;;;;10421126;28;20053;-75
2022/05/11 10:26:46;;;;;;;6.45;1.80;;;;;;;;;;10432359;28;20049;-73
2022/05/11 10:32:06;;;;;;;8.80;1.90;;;;;;;;;;10436765;28;20421;-74
2022/05/11 10:37:07;;;;;;;;;;;;;;;;;;10426663;28;20076;-73
2022/05/11 10:42:12;;;;;;;8.57;1.98;;;;;;;;;;10443459;28;19937;-71
2022/05/11 10:47:22;;;;;;;9.60;1.65;;;;;;;;;;10418607;28;20220;-73
2022/05/11 10:52:27;;;;;;;7.50;1.60;;;;;;;;;;10430648;28;20033;-72
2022/05/11 10:57:39;;;;;;;4.68;1.60;;;;;;;;;;10413840;28;20468;-73
2022/05/11 11:02:56;;;;;;;6.68;1.73;;;;;;;;;;10446129;28;20044;-72
2022/05/11 11:07:59;;;;;;;9.07;1.48;;;;;;;;;;10390880;28;20061;-72
2022/05/11 11:13:08;;;;;;;4.47;1.30;;;;;;;;;;10439463;28;20103;-73
2022/05/11 11:18:11;;;;;;;4.80;1.40;;;;;;;;;;10410523;28;20095;-72
2022/05/11 11:23:16;;;;;;;5.55;1.90;;;;;;;;;;10420477;28;20143;-72
2022/05/11 11:28:18;;;;;;;4.72;1.42;;;;;;;;;;10427354;28;20533;-71
2022/05/11 11:33:23;;;;;;;6.30;1.50;;;;;;;;;;10451928;28;20634;-71
2022/05/11 11:38:45;;;;;;;4.15;1.25;;;;;;;;;;10426793;28;20044;-71
2022/05/11 11:43:53;;;;;;;5.50;1.27;;;;;;;;;;10426130;28;20042;-70
2022/05/11 11:49:03;;;;;;;6.32;1.42;;;;;;;;;;10425198;28;20598;-70
2022/05/11 11:54:04;;;;;;;12.57;1.42;;;;;;;;;;10421445;28;20041;-69
2022/05/11 11:59:06;;;;;;;4.05;1.20;;;;;;;;;;10432138;28;20049;-68
2022/05/11 12:04:12;;;;;;;4.50;1.30;;;;;;;;;;10437308;28;20132;-71
2022/05/11 12:15:03;;;;;;;7.35;1.30;;;;;;;;;;10382817;28;20145;-71
2022/05/11 12:20:13;;;;;;;4.40;1.08;;;;;;;;;;10430788;28;20148;-71
2022/05/11 12:25:21;;;;;;;7.72;1.58;;;;;;;;;;10410960;28;20053;-71
2022/05/11 12:30:32;;;;;;;7.68;1.33;;;;;;;;;;10424124;28;20257;-71
2022/05/11 12:35:41;;;;;;;5.38;1.25;;;;;;;;;;10421290;28;20080;-71
2022/05/11 12:40:45;;;;;;;5.28;0.98;;;;;;;;;;10420782;28;20068;-70
2022/05/11 12:45:46;;;;;;;9.85;1.38;;;;;;;;;;10436114;28;20081;-70
2022/05/11 12:50:54;;;;;;;10.55;1.40;;;;;;;;;;10434481;28;20068;-71
2022/05/11 12:56:07;;;;;;;3.17;0.93;;;;;;;;;;10423383;28;20091;-71
2022/05/11 13:01:11;;;;;;;3.15;1.20;;;;;;;;;;10427485;28;20501;-71
2022/05/11 13:06:15;;;;;;;12.98;1.40;;;;;;;;;;10424159;28;20048;-69
2022/05/11 13:11:18;;;;;;;6.50;0.90;;;;;;;;;;10398726;28;20486;-74
2022/05/11 13:16:22;;;;;;;6.15;1.00;;;;;;;;;;10425437;28;20499;-71
2022/05/11 13:21:30;;;;;;;8.15;1.00;;;;;;;;;;10430093;28;20048;-70
2022/05/11 13:26:37;;;;;;;6.30;0.98;;;;;;;;;;10412939;28;20552;-70
2022/05/11 13:31:44;;;;;;;6.25;1.00;;;;;;;;;;10433547;28;20049;-70
2022/05/11 13:36:49;;;;;;;4.55;0.90;;;;;;;;;;10418317;28;20167;-70
2022/05/11 13:41:53;;;;;;;3.60;0.90;;;;;;;;;;10417204;28;20378;-70
2022/05/11 13:52:33;;;;;;;12.15;1.50;;;;;;;;;;10403992;28;20089;-71
2022/05/11 13:57:36;;;;;;;3.85;0.90;;;;;;;;;;10416317;28;20416;-70
2022/05/11 14:02:38;;;;;;;6.10;0.95;;;;;;;;;;10440673;28;20587;-69
2022/05/11 14:07:43;;;;;;;2.78;0.80;;;;;;;;;;10416960;28;20136;-71
2022/05/11 14:12:45;;;;;;;4.65;0.80;;;;;;;;;;10429237;28;20052;-70
2022/05/11 14:17:48;;;;;;;2.97;0.82;;;;;;;;;;10413065;28;20084;-72
2022/05/11 14:22:50;;;;;;;2.78;0.90;;;;;;;;;;10408825;28;20069;-70
2022/05/11 14:27:51;;;;;;;8.40;1.10;;;;;;;;;;10414770;28;20405;-71
2022/05/11 14:32:53;;;;;;;3.60;0.90;;;;;;;;;;10446940;28;20040;-72
2022/05/11 14:37:54;;;;;;;5.65;1.00;;;;;;;;;;10429718;28;20041;-73
2022/05/11 14:43:00;;;;;;;5.85;1.13;;;;;;;;;;10427711;28;20041;-72
2022/05/11 14:48:04;;;;;;;2.45;0.80;;;;;;;;;;10417711;28;20079;-73
2022/05/11 14:53:05;;;;;;;9.55;1.10;;;;;;;;;;10428615;28;20389;-72
2022/05/11 15:03:27;;;;;;;4.22;0.70;;;;;;;;;;10441174;28;20408;-73
2022/05/11 15:08:30;;;;;;;3.88;0.70;;;;;;;;;;10421841;28;20136;-70
2022/05/11 15:13:31;;;;;;;3.38;0.90;;;;;;;;;;10434522;28;20045;-71
2022/05/11 15:18:33;;;;;;;10.02;1.35;;;;;;;;;;10421940;28;20491;-71
2022/05/11 15:23:35;;;;;;;4.95;0.88;;;;;;;;;;10433494;28;20418;-69
2022/05/11 15:28:36;;;;;;;3.20;0.85;;;;;;;;;;10427346;28;20236;-71
2022/05/11 15:33:38;;;;;;;6.07;0.90;;;;;;;;;;10433246;28;20119;-71
2022/05/11 15:38:39;;;;;;;6.00;1.15;;;;;;;;;;10431084;28;20118;-72
2022/05/11 15:43:41;;;;;;;11.10;0.80;;;;;;;;;;10422962;28;20124;-71
2022/05/11 15:48:43;;;;;;;9.25;1.00;;;;;;;;;;10435032;28;20049;-73
2022/05/11 15:53:45;;;;;;;3.55;0.70;;;;;;;;;;10414331;28;20484;-72
2022/05/11 15:58:47;;;;;;;5.00;0.95;;;;;;;;;;10424079;28;20061;-74
2022/05/11 16:03:49;;;;;;;3.55;0.90;;;;;;;;;;10448969;28;20060;-73
2022/05/11 16:08:52;;;;;;;4.45;0.80;;;;;;;;;;10448189;28;20465;-74
2022/05/11 16:13:54;;;;;;;6.47;1.00;;;;;;;;;;10441534;28;20055;-72
2022/05/11 16:24:16;;;;;;;9.23;1.17;;;;;;;;;;10434946;28;20045;-73
2022/05/11 16:29:21;;;;;;;5.57;1.10;;;;;;;;;;10425900;28;20050;-74
2022/05/11 16:34:27;;;;;;;8.93;1.50;;;;;;;;;;10435198;28;20118;-73
2022/05/11 16:39:29;;;;;;;6.22;0.90;;;;;;;;;;10435417;28;20515;-73
2022/05/11 16:44:33;;;;;;;5.57;1.20;;;;;;;;;;10443124;28;20045;-74
2022/05/11 16:49:37;;;;;;;10.77;1.65;;;;;;;;;;10441171;28;20062;-74
2022/05/11 16:54:39;;;;;;;15.23;1.60;;;;;;;;;;10437039;28;20403;-73
2022/05/11 16:59:41;;;;;;;12.25;1.52;;;;;;;;;;10433429;28;20041;-73
2022/05/11 17:04:42;;;;;;;14.98;1.67;;;;;;;;;;10443910;28;20063;-71
2022/05/11 17:09:44;;;;;;;9.80;1.50;;;;;;;;;;10433963;28;20048;-69
2022/05/11 17:14:46;;;;;;;8.27;1.80;;;;;;;;;;10415872;28;20048;-71
2022/05/11 17:19:48;;;;;;;7.45;1.83;;;;;;;;;;10443032;28;20052;-71
2022/05/11 17:24:50;;;;;;;10.90;1.58;;;;;;;;;;10427684;28;20303;-72
2022/05/11 17:29:52;;;;;;;12.48;2.00;;;;;;;;;;10441539;28;20462;-71
2022/05/11 17:34:53;;;;;;;13.15;2.30;;;;;;;;;;10437671;28;20049;-72
2022/05/11 17:39:54;;;;;;;13.48;1.63;;;;;;;;;;10449862;28;20313;-72
2022/05/11 17:44:56;;;;;;;8.13;1.60;;;;;;;;;;10440066;28;20055;-73
2022/05/11 17:49:57;;;;;;;9.85;1.65;;;;;;;;;;10434507;28;20544;-72
2022/05/11 17:54:58;;;;;;;10.98;1.70;;;;;;;;;;10434146;28;20096;-73
2022/05/11 18:00:00;;;;;;;7.65;1.42;;;;;;;;;;10434999;28;20045;-73
2022/05/11 18:05:01;;;;;;;12.45;1.73;;;;;;;;;;10446767;28;20132;-73
2022/05/11 18:10:04;;;;;;;10.15;1.58;;;;;;;;;;10443160;28;20049;-72
2022/05/11 18:15:07;;;;;;;7.93;1.50;;;;;;;;;;10444375;28;20102;-73
2022/05/11 18:20:13;;;;;;;6.70;1.38;;;;;;;;;;10438131;28;20047;-73
2022/05/11 18:25:16;;;;;;;8.70;1.77;;;;;;;;;;10427324;28;20468;-75
2022/05/11 18:30:18;;;;;;;7.53;1.58;;;;;;;;;;10463763;28;20040;-73
2022/05/11 18:35:21;;;;;;;10.60;2.08;;;;;;;;;;10461642;28;20037;-73
2022/05/11 18:40:23;;;;;;;14.23;2.97;;;;;;;;;;10436661;28;20089;-74
2022/05/11 18:45:25;;;;;;;24.40;3.63;;;;;;;;;;10436130;28;20428;-73
2022/05/11 18:50:26;;;;;;;19.58;3.00;;;;;;;;;;10437776;28;20424;-73
2022/05/11 18:55:28;;;;;;;13.07;2.65;;;;;;;;;;10434753;28;20049;-73
2022/05/11 19:00:34;;;;;;;15.90;2.97;;;;;;;;;;10424416;28;20105;-73
2022/05/11 19:05:43;;;;;;;10.73;2.92;;;;;;;;;;10433190;28;20493;-73
2022/05/11 19:10:45;;;;;;;21.40;4.10;;;;;;;;;;10450650;28;20084;-72
2022/05/11 19:15:46;;;;;;;25.80;3.25;;;;;;;;;;10436392;28;20055;-73
2022/05/11 19:20:48;;;;;;;17.75;3.40;;;;;;;;;;10434603;28;20045;-72
2022/05/11 19:25:55;;;;;;;19.83;3.83;;;;;;;;;;10448771;28;20075;-73
2022/05/11 19:31:00;;;;;;;21.65;3.63;;;;;;;;;;10450476;28;20094;-73
2022/05/11 19:36:02;;;;;;;18.10;3.80;;;;;;;;;;10426967;28;20037;-73
2022/05/11 19:41:10;;;;;;;18.10;3.38;;;;;;;;;;10429164;28;20045;-73
2022/05/11 19:46:11;;;;;;;21.73;4.05;;;;;;;;;;10429099;28;20044;-73
2022/05/11 19:51:13;;;;;;;55.13;5.18;;;;;;;;;;10435092;28;20084;-74
2022/05/11 19:56:15;;;;;;;20.73;4.35;;;;;;;;;;10421353;28;20041;-73
2022/05/11 20:01:17;;;;;;;20.42;4.50;;;;;;;;;;10436511;28;20053;-73
2022/05/11 20:06:20;;;;;;;20.02;3.58;;;;;;;;;;10422743;28;20049;-73
2022/05/11 20:11:23;;;;;;;15.25;2.67;;;;;;;;;;10416569;28;20050;-73
2022/05/11 20:16:25;;;;;;;13.18;2.50;;;;;;;;;;10427324;28;20037;-73
2022/05/11 20:21:26;;;;;;;18.25;2.05;;;;;;;;;;10433842;28;20131;-72
2022/05/11 20:26:28;;;;;;;10.23;1.98;;;;;;;;;;10427258;28;20053;-72
2022/05/11 20:36:51;;;;;;;10.43;1.88;;;;;;;;;;10421231;28;20037;-73
2022/05/11 20:41:53;;;;;;;11.75;1.88;;;;;;;;;;10421086;28;20168;-72
2022/05/11 20:46:55;;;;;;;12.48;2.25;;;;;;;;;;10394878;28;20046;-73
2022/05/11 20:51:56;;;;;;;18.80;3.38;;;;;;;;;;10418535;28;20059;-73
2022/05/11 20:56:58;;;;;;;16.52;3.90;;;;;;;;;;10425925;28;20124;-72
2022/05/11 21:01:59;;;;;;;17.08;4.20;;;;;;;;;;10437136;28;20519;-72
2022/05/11 21:07:00;;;;;;;22.90;4.50;;;;;;;;;;10439879;28;20528;-73
2022/05/11 21:12:02;;;;;;;18.90;4.47;;;;;;;;;;10420611;28;20084;-76
2022/05/11 21:17:03;;;;;;;22.10;4.97;;;;;;;;;;10424720;28;20152;-75
2022/05/11 21:22:05;;;;;;;23.17;4.75;;;;;;;;;;10410856;28;20119;-74
2022/05/11 21:27:06;;;;;;;20.38;4.43;;;;;;;;;;10433852;28;20056;-75
2022/05/11 21:32:08;;;;;;;15.07;2.60;;;;;;;;;;10421847;28;20042;-75
2022/05/11 21:37:10;;;;;;;7.95;2.67;;;;;;;;;;10437667;28;20041;-75
2022/05/11 21:42:12;;;;;;;7.25;2.10;;;;;;;;;;10422928;28;20424;-74
2022/05/11 21:47:14;;;;;;;10.88;2.30;;;;;;;;;;10445763;28;20052;-74
2022/05/11 21:52:16;;;;;;;11.55;2.22;;;;;;;;;;10431784;28;20055;-74
2022/05/11 21:57:17;;;;;;;7.03;1.95;;;;;;;;;;10445998;28;20500;-74
2022/05/11 22:02:18;;;;;;;8.32;2.13;;;;;;;;;;10463379;28;20282;-74
2022/05/11 22:07:20;;;;;;;8.10;1.83;;;;;;;;;;10424912;28;20059;-73
2022/05/11 22:12:21;;;;;;;5.50;2.10;;;;;;;;;;10431424;28;20045;-74
2022/05/11 22:17:23;;;;;;;11.68;2.25;;;;;;;;;;10424171;28;20068;-73
2022/05/11 22:22:25;;;;;;;5.70;1.70;;;;;;;;;;10432610;28;20045;-74
2022/05/11 22:27:26;;;;;;;7.20;1.80;;;;;;;;;;10435389;28;20045;-73
2022/05/11 22:32:28;;;;;;;6.10;1.80;;;;;;;;;;10433614;28;20522;-74
2022/05/11 22:37:29;;;;;;;6.35;1.88;;;;;;;;;;10444456;28;20405;-74
2022/05/11 22:42:31;;;;;;;8.88;1.80;;;;;;;;;;10424146;28;20049;-73
2022/05/11 22:47:32;;;;;;;6.65;1.98;;;;;;;;;;10418845;28;20080;-74
2022/05/11 22:52:33;;;;;;;6.95;1.80;;;;;;;;;;10414802;28;20068;-73
2022/05/11 22:57:35;;;;;;;5.30;2.55;;;;;;;;;;10433610;28;20043;-73
2022/05/11 23:02:36;;;;;;;5.05;2.03;;;;;;;;;;10445491;28;20059;-72
2022/05/11 23:07:38;;;;;;;7.95;1.83;;;;;;;;;;10422505;28;20143;-73
2022/05/11 23:12:39;;;;;;;5.68;2.00;;;;;;;;;;10421231;28;20053;-72
2022/05/11 23:17:41;;;;;;;5.07;1.75;;;;;;;;;;10429432;28;20044;-75
2022/05/11 23:22:42;;;;;;;4.78;1.90;;;;;;;;;;10425036;28;20037;-74
2022/05/11 23:27:44;;;;;;;3.70;1.83;;;;;;;;;;10431932;28;20041;-74
2022/05/11 23:32:45;;;;;;;5.07;2.28;;;;;;;;;;10430899;28;20046;-75
2022/05/11 23:37:47;;;;;;;5.15;2.15;;;;;;;;;;10418421;28;20085;-75
2022/05/11 23:42:48;;;;;;;8.40;1.90;;;;;;;;;;10426869;28;20592;-73
2022/05/11 23:47:50;;;;;;;6.47;1.92;;;;;;;;;;10413538;28;20128;-74
2022/05/11 23:52:52;;;;;;;6.90;2.45;;;;;;;;;;10437268;28;20049;-74
2022/05/11 23:57:53;;;;;;;6.18;2.20;;;;;;;;;;10428521;28;20048;-74
